Chicago, Illinois
Current Conditions -  °F | °C
As of 3:53 AM on Thursday 29 Jan 2015 (Local Time) from KMDW Reporting Station
Overcast Overcast  
Wind Chill: 33°   Ceiling: 9000
Heat Index: 39°   Visibility: 10mi
Dew Point: 28°   Wind: 9mph
Humidity: 65%   Direction: 180°S
Pressure: 29.71"   Gusts: NA
Location:  41.88°N, 87.63°W
Report Text: KMDW 290953Z 18008KT 10SM OVC090 04/M02 A2971 RMK AO2 SLP069 T00391022
Loading
Personal Weather Stations






























Interactive Weather Map New forecast layout! Learn more

10-Day Weather Forecast

Advertisements
Track Severe Weather on mobile